This is the latest recevied weather packets stored in our database for station/object VA3WWD-2. If no packets are shown the sender has not sent any weather packets the latest 10 day(s).
| Time | Temp. | Humidity | Pressure | Rain* | Wind** | Luminosity | Snow |
|---|---|---|---|---|---|---|---|
| 1777560394 | 5.56° C | 58% | - | 0 mm | 0 m/s | - | - |
| 1777560096 | 5° C | 60% | - | 0 mm | 0 m/s | - | - |
| 1777559497 | 5° C | 60% | - | 0 mm | 0 m/s | - | - |
| 1777559199 | 5° C | 61% | - | 0 mm | 0 m/s | - | - |
| 1777555611 | 2.78° C | 74% | - | 0 mm | 0 m/s | - | - |
| 1777554714 | 2.78° C | 75% | - | 0 mm | 0 m/s | - | - |
| 1777550230 | 1.67° C | 79% | - | 0 mm | 0 m/s | - | - |
| 1777549631 | 1.67° C | 79% | - | 0 mm | 0 m/s | - | - |
| 1777549333 | 2.22° C | 79% | - | 0 mm | 0 m/s | - | - |
| 1777547837 | 2.22° C | 79% | - | 0 mm | 0 m/s | - | - |
| 1777547539 | 2.78° C | 79% | - | 0 mm | 0 m/s | - | - |
| 1777546043 | 2.22° C | 78% | - | 0 mm | 0 m/s | - | - |
| 1777545444 | 1.67° C | 78% | - | 0 mm | 0 m/s | - | - |
| 1777545146 | 2.22° C | 78% | - | 0 mm | 0 m/s | - | - |
| 1777544848 | 2.78° C | 78% | - | 0 mm | 0 m/s | - | - |
| 1777544547 | 1.67° C | 78% | - | 0 mm | 0 m/s | - | - |
| 1777544249 | 2.78° C | 78% | - | 0 mm | 0 m/s | - | - |
| 1777543951 | 2.22° C | 78% | - | 0 mm | 0 m/s | - | - |
| 1777543650 | 2.22° C | 77% | - | 0 mm | 0 m/s | - | - |
| 1777543054 | 2.22° C | 77% | - | 0 mm | 0 m/s | - | - |
| 1777542456 | 2.22° C | 77% | - | 0 mm | 0 m/s | - | - |
| 1777542158 | 1.67° C | 77% | - | 0 mm | 0 m/s | - | - |
| 1777541558 | 2.22° C | 78% | - | 0 mm | 0 m/s | - | - |
| 1777541260 | 1.67° C | 78% | - | 0 mm | 0 m/s | - | - |
| 1777540959 | 1.67° C | 78% | - | 0 mm | 0 m/s | - | - |
* Rain latest hour (hover to see other rain measurements)
** Current wind speed in m/s (hover to see current wind gust speed)